createdAt,value
2023-04-04T00:00:22.821Z,-0.80
2023-04-04T00:03:09.081Z,-0.80
2023-04-04T00:05:54.551Z,-0.80
2023-04-04T00:08:39.845Z,-0.80
2023-04-04T00:11:28.858Z,-0.90
2023-04-04T00:14:14.175Z,-0.90
2023-04-04T00:16:59.695Z,-0.80
2023-04-04T00:19:46.674Z,-0.90
2023-04-04T00:22:32.216Z,-0.90
2023-04-04T00:25:17.873Z,-1.00
2023-04-04T00:28:10.468Z,-0.90
2023-04-04T00:30:56.843Z,-0.90
2023-04-04T00:33:42.489Z,-1.00
2023-04-04T00:36:27.920Z,-1.00
2023-04-04T00:39:13.211Z,-1.10
2023-04-04T00:42:01.681Z,-1.00
2023-04-04T00:44:51.999Z,-1.00
2023-04-04T00:47:38.704Z,-1.10
2023-04-04T00:50:24.816Z,-1.10
2023-04-04T00:53:12.723Z,-1.20
2023-04-04T00:56:00.671Z,-1.20
2023-04-04T00:58:47.227Z,-1.30
2023-04-04T01:01:33.613Z,-1.30
2023-04-04T01:04:19.726Z,-1.40
2023-04-04T01:07:05.335Z,-1.40
2023-04-04T01:09:51.548Z,-1.50
2023-04-04T01:12:39.144Z,-1.50
2023-04-04T01:15:24.460Z,-1.50
2023-04-04T01:18:13.054Z,-1.60
2023-04-04T01:21:04.978Z,-1.50
2023-04-04T01:24:01.468Z,-1.60
2023-04-04T01:26:46.950Z,-1.60
2023-04-04T01:29:32.223Z,-1.60
2023-04-04T01:32:26.171Z,-1.70
2023-04-04T01:35:27.307Z,-1.70
2023-04-04T01:38:40.370Z,-1.80
2023-04-04T01:41:33.224Z,-1.90
2023-04-04T01:44:19.103Z,-2.00
2023-04-04T01:47:09.862Z,-2.00
2023-04-04T01:49:55.677Z,-2.00
2023-04-04T01:52:40.862Z,-2.00
2023-04-04T01:55:26.525Z,-2.10
2023-04-04T01:58:11.755Z,-2.10
2023-04-04T02:00:57.616Z,-2.10
2023-04-04T02:03:43.214Z,-2.10
2023-04-04T02:06:29.337Z,-2.00
2023-04-04T02:09:14.918Z,-2.00
2023-04-04T02:12:00.997Z,-1.90
2023-04-04T02:14:49.503Z,-2.00
2023-04-04T02:17:35.720Z,-2.00
2023-04-04T02:20:21.343Z,-2.00
2023-04-04T02:23:09.273Z,-2.00
2023-04-04T02:25:57.603Z,-2.10
2023-04-04T02:28:45.459Z,-2.00
2023-04-04T02:31:31.142Z,-2.00
2023-04-04T02:34:16.460Z,-2.00
2023-04-04T02:37:02.297Z,-1.90
2023-04-04T02:39:47.549Z,-1.90
2023-04-04T02:42:32.989Z,-1.80
2023-04-04T02:45:18.881Z,-1.70
2023-04-04T02:48:04.696Z,-1.90
2023-04-04T02:50:51.076Z,-1.90
2023-04-04T02:53:36.271Z,-1.90
2023-04-04T02:56:22.114Z,-1.80
2023-04-04T02:59:07.663Z,-1.90
2023-04-04T03:01:55.695Z,-1.90
2023-04-04T03:04:41.439Z,-1.90
2023-04-04T03:07:26.862Z,-1.80
2023-04-04T03:10:13.103Z,-1.80
2023-04-04T03:13:01.803Z,-1.80
2023-04-04T03:15:47.607Z,-1.80
2023-04-04T03:18:34.726Z,-1.80
2023-04-04T03:21:20.174Z,-1.90
2023-04-04T03:24:06.522Z,-1.80
2023-04-04T03:26:51.793Z,-1.80
2023-04-04T03:29:37.240Z,-1.80
2023-04-04T03:32:23.009Z,-1.80
2023-04-04T03:35:08.577Z,-1.90
2023-04-04T03:37:57.019Z,-1.90
2023-04-04T03:40:44.121Z,-1.90
2023-04-04T03:43:30.899Z,-2.10
2023-04-04T03:46:16.928Z,-2.20
2023-04-04T03:49:02.523Z,-2.20
2023-04-04T03:51:48.628Z,-2.30
2023-04-04T03:54:37.074Z,-2.30
2023-04-04T03:57:22.518Z,-2.20
2023-04-04T04:00:08.628Z,-2.30
2023-04-04T04:02:54.367Z,-2.30
2023-04-04T04:05:39.899Z,-2.40
2023-04-04T04:08:25.519Z,-2.20
2023-04-04T04:11:11.012Z,-2.20
2023-04-04T04:13:56.652Z,-2.20
2023-04-04T04:16:42.846Z,-2.20
2023-04-04T04:19:28.375Z,-2.20
2023-04-04T04:22:16.897Z,-2.30
2023-04-04T04:25:04.299Z,-2.30
2023-04-04T04:27:49.598Z,-2.30
2023-04-04T04:30:37.991Z,-2.30
2023-04-04T04:33:31.268Z,-2.50
2023-04-04T04:36:16.775Z,-2.30
2023-04-04T04:39:02.693Z,-2.30
2023-04-04T04:41:48.517Z,-2.40
2023-04-04T04:44:33.986Z,-2.40
2023-04-04T04:47:21.602Z,-2.40
2023-04-04T04:50:08.219Z,-2.30
2023-04-04T04:52:53.965Z,-2.30
2023-04-04T04:55:40.253Z,-2.20
2023-04-04T04:58:26.928Z,-2.20
2023-04-04T05:01:14.452Z,-2.20
2023-04-04T05:04:00.341Z,-2.20
2023-04-04T05:06:47.791Z,-2.10
2023-04-04T05:09:33.053Z,-2.00
2023-04-04T05:12:18.943Z,-2.00
2023-04-04T05:15:04.509Z,-2.00
2023-04-04T05:17:50.731Z,-2.00
2023-04-04T05:20:38.637Z,-1.90
2023-04-04T05:23:24.186Z,-1.90
2023-04-04T05:26:09.700Z,-1.90
2023-04-04T05:28:59.250Z,-1.90
2023-04-04T05:31:45.144Z,-1.90
2023-04-04T05:34:38.047Z,-1.80
2023-04-04T05:37:23.885Z,-1.80
2023-04-04T05:40:11.627Z,-1.60
2023-04-04T05:43:00.328Z,-1.70
2023-04-04T05:45:45.774Z,-1.70
2023-04-04T05:48:31.712Z,-1.60
2023-04-04T05:51:17.584Z,-1.60
2023-04-04T05:54:03.276Z,-1.50
2023-04-04T05:56:49.130Z,-1.50
2023-04-04T05:59:35.038Z,-1.40
2023-04-04T06:02:20.319Z,-1.40
2023-04-04T06:05:06.029Z,-1.30
2023-04-04T06:07:51.642Z,-1.30
2023-04-04T06:10:39.762Z,-1.30
2023-04-04T06:13:27.833Z,-1.20
2023-04-04T06:16:13.580Z,-1.10
2023-04-04T06:18:59.702Z,-1.10
2023-04-04T06:21:45.475Z,-1.00
2023-04-04T06:24:31.041Z,-1.00
2023-04-04T06:27:17.168Z,-1.00
2023-04-04T06:30:06.099Z,-1.00
2023-04-04T06:32:52.437Z,-0.90
2023-04-04T06:35:40.134Z,-0.80
2023-04-04T06:38:29.368Z,-0.60
2023-04-04T06:41:14.913Z,-0.50
2023-04-04T06:44:01.526Z,-0.50
2023-04-04T06:46:49.596Z,-0.40
2023-04-04T06:49:35.234Z,-0.40
2023-04-04T06:52:20.908Z,-0.40
2023-04-04T06:55:07.384Z,-0.30
2023-04-04T06:57:52.786Z,-0.30
2023-04-04T07:00:38.802Z,-0.20
2023-04-04T07:03:27.250Z,-0.20
2023-04-04T07:06:12.935Z,0.00
2023-04-04T07:08:58.297Z,0.10
2023-04-04T07:11:43.730Z,0.20
2023-04-04T07:14:29.316Z,0.20
2023-04-04T07:17:24.324Z,0.30
2023-04-04T07:20:11.412Z,0.30
2023-04-04T07:22:57.071Z,0.40
2023-04-04T07:25:44.350Z,0.40
2023-04-04T07:28:30.343Z,0.50
2023-04-04T07:31:15.670Z,0.40
2023-04-04T07:34:03.657Z,0.50
2023-04-04T07:36:49.612Z,0.60
2023-04-04T07:39:34.772Z,0.60
2023-04-04T07:42:25.400Z,0.70
2023-04-04T07:45:11.949Z,0.80
2023-04-04T07:47:58.232Z,0.90
2023-04-04T07:50:43.479Z,0.90
2023-04-04T07:53:31.160Z,0.90
2023-04-04T07:56:16.327Z,1.00
2023-04-04T07:59:02.166Z,1.10
2023-04-04T08:01:47.798Z,1.20
2023-04-04T08:04:33.331Z,1.30
2023-04-04T08:07:22.725Z,1.40
2023-04-04T08:10:10.072Z,1.40
2023-04-04T08:12:55.602Z,1.50
2023-04-04T08:15:41.491Z,1.50
2023-04-04T08:18:27.316Z,1.50
2023-04-04T08:21:12.908Z,1.50
2023-04-04T08:24:01.298Z,1.60
2023-04-04T08:26:58.326Z,1.70
2023-04-04T08:29:52.488Z,1.70
2023-04-04T08:32:38.138Z,1.60
2023-04-04T08:35:23.482Z,1.70
2023-04-04T08:38:08.918Z,1.70
2023-04-04T08:40:54.236Z,1.80
2023-04-04T08:43:43.633Z,1.90
2023-04-04T08:46:30.089Z,1.90
2023-04-04T08:49:16.688Z,2.00
2023-04-04T08:52:03.653Z,2.10
2023-04-04T08:54:52.712Z,2.10
2023-04-04T08:57:38.530Z,2.20
2023-04-04T09:00:24.666Z,2.20
2023-04-04T09:03:18.407Z,2.20
2023-04-04T09:06:05.066Z,2.30
2023-04-04T09:08:54.112Z,2.40
2023-04-04T09:11:40.134Z,2.60
2023-04-04T09:14:27.241Z,2.70
2023-04-04T09:17:13.573Z,2.90
2023-04-04T09:20:05.296Z,3.20
2023-04-04T09:22:51.554Z,3.40
2023-04-04T09:28:31.241Z,3.60
2023-04-04T09:31:17.350Z,3.60
2023-04-04T09:34:05.860Z,3.70
2023-04-04T09:36:54.010Z,3.90
2023-04-04T09:39:42.499Z,4.10
2023-04-04T09:42:31.000Z,4.30
2023-04-04T09:45:29.382Z,4.50
2023-04-04T09:48:36.227Z,4.90
2023-04-04T09:51:23.629Z,5.10
2023-04-04T09:54:28.771Z,5.20
2023-04-04T09:57:14.975Z,5.60
2023-04-04T10:00:02.289Z,5.90
2023-04-04T10:02:49.265Z,6.40
2023-04-04T10:05:35.617Z,6.90
2023-04-04T10:08:24.563Z,7.30
2023-04-04T10:11:12.353Z,7.60
2023-04-04T10:13:59.106Z,7.10
2023-04-04T10:16:47.510Z,6.90
2023-04-04T10:19:33.461Z,6.70
2023-04-04T10:22:21.048Z,6.60
2023-04-04T10:25:07.484Z,6.90
2023-04-04T10:27:53.111Z,7.50
2023-04-04T10:30:49.795Z,7.90
2023-04-04T10:33:53.010Z,7.80
2023-04-04T10:36:51.558Z,8.10
2023-04-04T10:39:40.826Z,7.80
2023-04-04T10:42:31.512Z,7.20
2023-04-04T10:45:21.484Z,6.70
2023-04-04T10:48:10.540Z,6.20
2023-04-04T10:50:57.151Z,6.00
2023-04-04T10:53:43.308Z,6.20
2023-04-04T10:56:29.817Z,6.60
2023-04-04T10:59:17.311Z,7.00
2023-04-04T11:02:03.304Z,7.40
2023-04-04T11:04:48.906Z,7.50
2023-04-04T11:07:40.420Z,7.90
2023-04-04T11:10:34.547Z,8.10
2023-04-04T11:13:31.941Z,8.00
2023-04-04T11:16:21.543Z,8.50
2023-04-04T11:19:11.580Z,8.70
2023-04-04T11:22:00.124Z,8.00
2023-04-04T11:24:46.103Z,8.20
2023-04-04T11:27:33.623Z,8.70
2023-04-04T11:30:21.587Z,8.90
2023-04-04T11:33:09.291Z,8.90
2023-04-04T11:36:07.746Z,8.90
2023-04-04T11:38:53.737Z,8.20
2023-04-04T11:42:05.351Z,8.00
2023-04-04T11:44:59.699Z,7.60
2023-04-04T11:47:49.609Z,8.20
2023-04-04T11:50:50.107Z,9.10
2023-04-04T11:53:36.008Z,9.60
2023-04-04T11:56:21.491Z,9.80
2023-04-04T11:59:11.731Z,9.90
2023-04-04T12:01:58.354Z,9.20
2023-04-04T12:04:47.508Z,8.80
2023-04-04T12:07:38.317Z,8.50
2023-04-04T12:10:26.075Z,8.60
2023-04-04T12:13:11.619Z,9.20
2023-04-04T12:15:57.580Z,9.70
2023-04-04T12:18:44.549Z,9.60
2023-04-04T12:21:33.385Z,9.80
2023-04-04T12:24:22.293Z,10.00
2023-04-04T12:27:10.525Z,9.30
2023-04-04T12:29:59.176Z,9.40
2023-04-04T12:32:49.623Z,9.90
2023-04-04T12:35:36.245Z,10.60
2023-04-04T12:38:22.632Z,11.20
2023-04-04T12:41:16.685Z,12.10
2023-04-04T12:44:08.249Z,11.50
2023-04-04T12:47:00.894Z,10.30
2023-04-04T12:49:48.780Z,9.60
2023-04-04T12:52:42.141Z,9.80
2023-04-04T12:55:31.597Z,11.60
2023-04-04T12:58:23.831Z,14.20
2023-04-04T13:01:12.475Z,17.00
2023-04-04T13:04:04.189Z,19.80
2023-04-04T13:06:50.056Z,23.50
2023-04-04T13:09:36.966Z,26.00
2023-04-04T13:12:22.539Z,23.80
2023-04-04T13:15:08.502Z,21.20
2023-04-04T13:17:55.931Z,25.20
2023-04-04T13:20:41.596Z,24.90
2023-04-04T13:23:29.460Z,25.40
2023-04-04T13:26:16.091Z,24.30
2023-04-04T13:29:01.371Z,24.90
2023-04-04T13:31:46.648Z,25.70
2023-04-04T13:34:36.932Z,20.10
2023-04-04T13:37:22.145Z,16.00
2023-04-04T13:40:09.089Z,18.50
2023-04-04T13:42:54.491Z,15.00
2023-04-04T13:45:40.046Z,14.00
2023-04-04T13:48:26.332Z,13.60
2023-04-04T13:51:11.478Z,12.80
2023-04-04T13:53:56.768Z,11.90
2023-04-04T13:56:42.571Z,11.70
2023-04-04T13:59:28.971Z,17.70
2023-04-04T14:02:15.888Z,14.70
2023-04-04T14:05:01.562Z,17.50
2023-04-04T14:07:47.548Z,17.10
2023-04-04T14:10:32.946Z,18.50
2023-04-04T14:13:19.849Z,17.20
2023-04-04T14:16:08.737Z,14.10
2023-04-04T14:18:58.908Z,11.60
2023-04-04T14:21:46.878Z,12.10
2023-04-04T14:24:34.714Z,15.20
2023-04-04T14:27:19.835Z,15.70
2023-04-04T14:30:08.876Z,18.20
2023-04-04T14:32:56.321Z,20.10
2023-04-04T14:35:42.234Z,19.40
2023-04-04T14:38:28.073Z,19.50
2023-04-04T14:41:13.802Z,20.00
2023-04-04T14:43:59.021Z,18.60
2023-04-04T14:46:44.977Z,15.40
2023-04-04T14:49:33.208Z,13.40
2023-04-04T14:52:18.966Z,11.10
2023-04-04T14:55:09.860Z,10.50
2023-04-04T15:00:43.996Z,9.90
2023-04-04T15:03:30.015Z,10.10
2023-04-04T15:06:15.775Z,11.60
2023-04-04T15:09:01.553Z,13.50
2023-04-04T15:11:47.601Z,12.40
2023-04-04T15:14:36.707Z,13.70
2023-04-04T15:17:22.014Z,11.60
2023-04-04T15:20:08.678Z,11.60
2023-04-04T15:22:56.723Z,10.60
2023-04-04T15:25:44.113Z,10.10
2023-04-04T15:28:29.377Z,10.20
2023-04-04T15:31:17.921Z,10.40
2023-04-04T15:34:03.300Z,10.60
2023-04-04T15:36:50.879Z,9.90
2023-04-04T15:39:46.030Z,9.10
2023-04-04T15:42:37.625Z,9.40
2023-04-04T15:45:22.998Z,9.50
2023-04-04T15:48:08.882Z,9.10
2023-04-04T15:51:04.227Z,8.90
2023-04-04T15:53:56.727Z,8.90
2023-04-04T15:56:46.475Z,8.70
2023-04-04T15:59:34.393Z,8.20
2023-04-04T16:02:21.892Z,8.00
2023-04-04T16:05:07.548Z,7.90
2023-04-04T16:07:52.911Z,7.50
2023-04-04T16:10:38.913Z,7.40
2023-04-04T16:13:24.769Z,7.30
2023-04-04T16:16:11.567Z,7.40
2023-04-04T16:18:59.906Z,7.40
2023-04-04T16:21:49.309Z,7.50
2023-04-04T16:24:34.976Z,7.50
2023-04-04T16:27:20.890Z,7.70
2023-04-04T16:30:06.990Z,7.50
2023-04-04T16:32:52.656Z,7.30
2023-04-04T16:35:39.738Z,8.40
2023-04-04T16:38:25.330Z,7.70
2023-04-04T16:41:11.109Z,7.10
2023-04-04T16:43:59.609Z,6.70
2023-04-04T16:46:47.505Z,6.50
2023-04-04T16:49:33.006Z,6.40
2023-04-04T16:52:18.625Z,6.40
2023-04-04T16:55:04.932Z,6.40
2023-04-04T16:57:50.042Z,6.40
2023-04-04T17:00:35.915Z,6.40
2023-04-04T17:03:21.454Z,6.40
2023-04-04T17:06:09.323Z,6.40
2023-04-04T17:08:54.622Z,6.40
2023-04-04T17:11:44.942Z,6.40
2023-04-04T17:14:31.104Z,6.40
2023-04-04T17:17:17.395Z,6.30
2023-04-04T17:20:05.550Z,6.30
2023-04-04T17:22:53.987Z,6.20
2023-04-04T17:25:39.567Z,6.10
2023-04-04T17:28:27.813Z,5.90
2023-04-04T17:31:14.491Z,5.80
2023-04-04T17:33:59.946Z,5.80
2023-04-04T17:36:46.059Z,5.80
2023-04-04T17:39:33.716Z,5.70
2023-04-04T17:42:18.999Z,5.70
2023-04-04T17:45:08.460Z,5.70
2023-04-04T17:47:56.238Z,5.70
2023-04-04T17:50:42.974Z,5.70
2023-04-04T17:53:29.221Z,5.70
2023-04-04T17:56:17.307Z,5.70
2023-04-04T17:59:05.086Z,5.70
2023-04-04T18:01:51.165Z,5.60
2023-04-04T18:04:38.411Z,5.50
2023-04-04T18:07:27.206Z,5.40
2023-04-04T18:10:12.820Z,5.30
2023-04-04T18:12:58.716Z,5.10
2023-04-04T18:15:46.906Z,5.00
2023-04-04T18:18:37.459Z,4.90
2023-04-04T18:21:23.095Z,4.80
2023-04-04T18:24:11.202Z,4.70
2023-04-04T18:26:59.751Z,4.60
2023-04-04T18:29:45.919Z,4.60
2023-04-04T18:32:36.346Z,4.60
2023-04-04T18:35:21.872Z,4.40
2023-04-04T18:38:08.017Z,4.50
2023-04-04T18:40:54.663Z,4.50
2023-04-04T18:43:40.167Z,4.50
2023-04-04T18:46:25.562Z,4.40
2023-04-04T18:49:11.791Z,4.50
2023-04-04T18:52:00.453Z,4.60
2023-04-04T18:54:47.068Z,4.70
2023-04-04T18:57:37.572Z,4.70
2023-04-04T19:00:25.640Z,4.80
2023-04-04T19:03:13.094Z,4.70
2023-04-04T19:06:01.847Z,4.80
2023-04-04T19:08:47.738Z,4.70
2023-04-04T19:11:33.492Z,4.60
2023-04-04T19:14:19.568Z,4.50
2023-04-04T19:17:06.009Z,4.30
2023-04-04T19:19:53.043Z,4.30
2023-04-04T19:22:38.838Z,4.20
2023-04-04T19:25:25.195Z,4.00
2023-04-04T19:28:10.985Z,4.10
2023-04-04T19:30:56.454Z,4.00
2023-04-04T19:33:44.792Z,4.00
2023-04-04T19:36:35.500Z,3.90
2023-04-04T19:39:28.714Z,3.90
2023-04-04T19:42:14.767Z,3.80
2023-04-04T19:45:00.835Z,3.90
2023-04-04T19:47:47.009Z,3.90
2023-04-04T19:50:36.000Z,3.80
2023-04-04T19:53:22.713Z,3.80
2023-04-04T19:56:09.949Z,3.70
2023-04-04T19:59:09.092Z,3.80
2023-04-04T20:02:00.815Z,3.90
2023-04-04T20:04:49.115Z,3.70
2023-04-04T20:07:34.921Z,3.70
2023-04-04T20:10:40.752Z,3.70
2023-04-04T20:13:30.380Z,3.70
2023-04-04T20:16:17.536Z,3.60
2023-04-04T20:19:06.834Z,3.60
2023-04-04T20:21:53.444Z,3.50
2023-04-04T20:24:42.287Z,3.40
2023-04-04T20:27:28.082Z,3.30
2023-04-04T20:30:13.546Z,3.20
2023-04-04T20:32:58.835Z,3.10
2023-04-04T20:35:47.990Z,3.10
2023-04-04T20:38:33.646Z,3.00
2023-04-04T20:41:24.326Z,3.00
2023-04-04T20:44:22.102Z,2.90
2023-04-04T20:47:27.915Z,2.80
2023-04-04T20:50:16.955Z,2.70
2023-04-04T20:53:07.341Z,2.70
2023-04-04T20:55:54.280Z,2.50
2023-04-04T20:58:44.650Z,2.30
2023-04-04T21:01:30.555Z,2.20
2023-04-04T21:04:26.995Z,2.10
2023-04-04T21:07:40.959Z,2.20
2023-04-04T21:10:29.838Z,2.20
2023-04-04T21:13:15.762Z,2.10
2023-04-04T21:16:03.939Z,2.00
2023-04-04T21:18:49.231Z,1.90
2023-04-04T21:21:36.484Z,1.90
2023-04-04T21:24:22.800Z,2.00
2023-04-04T21:27:33.596Z,2.00
2023-04-04T21:30:47.897Z,1.90
2023-04-04T21:33:34.147Z,2.10
2023-04-04T21:36:29.393Z,2.00
2023-04-04T21:39:23.885Z,1.90
2023-04-04T21:42:11.906Z,1.80
2023-04-04T21:44:59.893Z,1.80
2023-04-04T21:47:45.436Z,1.80
2023-04-04T21:50:30.988Z,1.80
2023-04-04T21:53:21.900Z,1.70
2023-04-04T21:56:07.620Z,1.80
2023-04-04T21:58:54.716Z,1.80
2023-04-04T22:01:40.757Z,1.60
2023-04-04T22:04:26.706Z,1.50
2023-04-04T22:07:12.395Z,1.40
2023-04-04T22:09:58.867Z,1.40
2023-04-04T22:12:49.731Z,1.50
2023-04-04T22:15:35.006Z,1.40
2023-04-04T22:18:30.727Z,1.30
2023-04-04T22:21:18.662Z,1.20
2023-04-04T22:24:05.539Z,1.30
2023-04-04T22:26:51.593Z,1.20
2023-04-04T22:29:39.193Z,1.20
2023-04-04T22:32:27.087Z,1.10
2023-04-04T22:35:13.273Z,1.10
2023-04-04T22:38:04.695Z,1.00
2023-04-04T22:40:50.024Z,1.00
2023-04-04T22:43:37.838Z,1.10
2023-04-04T22:46:26.600Z,0.90
2023-04-04T22:49:13.386Z,0.90
2023-04-04T22:51:59.936Z,0.80
2023-04-04T22:54:46.363Z,0.80
2023-04-04T22:57:32.159Z,0.80
2023-04-04T23:00:17.980Z,0.80
2023-04-04T23:03:05.303Z,0.80
2023-04-04T23:05:51.176Z,0.60
2023-04-04T23:08:37.000Z,0.60
2023-04-04T23:11:22.864Z,0.40
2023-04-04T23:14:09.500Z,0.60
2023-04-04T23:16:56.929Z,0.60
2023-04-04T23:19:42.764Z,0.60
2023-04-04T23:22:29.145Z,0.60
2023-04-04T23:25:16.754Z,0.30
2023-04-04T23:28:04.885Z,0.30
2023-04-04T23:30:50.214Z,0.20
2023-04-04T23:33:36.032Z,0.30
2023-04-04T23:36:22.688Z,0.40
2023-04-04T23:39:10.496Z,0.40
2023-04-04T23:41:56.287Z,0.40
2023-04-04T23:44:42.165Z,0.30
2023-04-04T23:47:27.836Z,0.30
2023-04-04T23:50:13.216Z,0.30
2023-04-04T23:52:58.393Z,0.40
2023-04-04T23:55:44.359Z,0.30
2023-04-04T23:58:29.777Z,0.30
